Hatsu Ethic — VQFS4 — position and weather

sailwx.info

Track history (hours):
 
Tides and Currents Weather Stations Pressure Air Temp Water Temp Dewpoint Dewpoint Depression Visibility Wind Speed Wind Dir Waves Ship Positions

Hatsu Ethic

Last reported at 2016-Dec-02 23:28 UTC. Time now 2016-Dec-05 20:42 UTC.
Position N 48°10' W 125°51'.

Type: Ship (hazmat cat D). MMSI: 235603000.

Date/timePositionNaut miles runAvg speedWind from/ knotsBaromVisibWave heightAir tempDewpointWater temp
2016-Dec-02 23:28N 48°10' W 125°51'1517.0
2016-Dec-02 22:33N 48°20' W 125°33'1717.3
2016-Dec-02 21:33N 48°30' W 125°12'1817.7
2016-Dec-02 20:33N 48°30' W 124°45'2020.2
2016-Dec-02 19:34N 48°23' W 124°17'2020.3
2016-Dec-02 18:33N 48°17' W 123°48'1616.4
2016-Dec-02 17:33N 48°11' W 123°25'1514.1
2016-Dec-02 16:31N 48°12' W 123°03'1817.8
2016-Dec-02 15:29N 48°04' W 122°38'1718.4
2016-Dec-02 14:34N 47°49' W 122°27'1616.3
2016-Dec-02 13:33N 47°32' W 122°26'1312.7
2016-Dec-02 12:33N 47°20' W 122°26'5 0.2
2016-Dec-01 12:20N 47°15' W 122°23'2 0.2
2016-Nov-30 23:15N 47°17' W 122°25'1 1.9
2016-Nov-30 22:33N 47°17' W 122°27'1111.3
2016-Nov-30 21:33N 47°28' W 122°25'1818.4
2016-Nov-30 20:33N 47°47' W 122°27'1918.0
2016-Nov-30 19:31N 48°04' W 122°39'1616.4
2016-Nov-30 18:33N 48°12' W 122°60'1614.7
2016-Nov-30 17:29N 48°10' W 123°23'1010.8
2016-Nov-30 16:33N 48°19' W 123°27'9 8.8
2016-Nov-30 15:33N 48°24' W 123°15'1716.9
2016-Nov-30 14:32N 48°41' W 123°15'1313.3
2016-Nov-30 13:33N 48°52' W 123°05'1818.2
2016-Nov-30 12:33N 49°05' W 123°24'1515.3
2016-Nov-30 11:34N 49°19' W 123°14'7 6.6
2016-Nov-30 10:34N 49°17' W 123°05'0 0.0
2016-Nov-30 09:33N 49°17' W 123°05'0 0.0
2016-Nov-30 08:34N 49°17' W 123°05'0 0.0
2016-Nov-30 07:34N 49°17' W 123°05'0 0.0
2016-Nov-30 06:34N 49°17' W 123°05'0 0.0
2016-Nov-30 05:33N 49°17' W 123°05'0 0.0
2016-Nov-30 04:33N 49°17' W 123°05'0 0.0
2016-Nov-30 03:33N 49°17' W 123°05'0 0.0
2016-Nov-30 02:34N 49°17' W 123°05'0 0.0
2016-Nov-30 01:34N 49°17' W 123°05'0 0.0
2016-Nov-30 00:33N 49°17' W 123°05'0 0.0
2016-Nov-29 23:34N 49°17' W 123°05'0 0.0
2016-Nov-29 22:33N 49°17' W 123°05'0 0.0
2016-Nov-29 21:34N 49°17' W 123°05'0 0.0
2016-Nov-29 20:34N 49°17' W 123°05'0 0.0
2016-Nov-29 19:33N 49°17' W 123°05'0 0.0
2016-Nov-29 18:34N 49°17' W 123°05'0 0.0
2016-Nov-29 17:34N 49°17' W 123°05'0 0.0
2016-Nov-29 16:33N 49°17' W 123°05'0 0.0
2016-Nov-29 15:33N 49°17' W 123°05'0 0.0
2016-Nov-29 14:33N 49°17' W 123°05'0 0.0
2016-Nov-29 13:34N 49°17' W 123°05'0 0.0
2016-Nov-29 12:34N 49°17' W 123°05'0 0.0
2016-Nov-29 11:33N 49°17' W 123°05'0 0.0
2016-Nov-29 10:34N 49°17' W 123°05'0 0.0
2016-Nov-29 09:33N 49°17' W 123°05'0 0.0
2016-Nov-29 08:33N 49°17' W 123°05'0 0.0
2016-Nov-29 07:33N 49°17' W 123°05'0 0.0
2016-Nov-29 06:34N 49°17' W 123°05'0 0.0
2016-Nov-29 05:33N 49°17' W 123°05'0 0.0
2016-Nov-29 04:34N 49°17' W 123°05'0 0.0
2016-Nov-29 03:33N 49°17' W 123°05'0 0.0
2016-Nov-29 02:34N 49°17' W 123°05'0 0.0
2016-Nov-29 01:34N 49°17' W 123°05'0 0.0
2016-Nov-29 00:33N 49°17' W 123°05'0 0.0
2016-Nov-28 23:34N 49°17' W 123°05'0 0.0
2016-Nov-28 22:34N 49°17' W 123°05'0 0.0
2016-Nov-28 21:34N 49°17' W 123°05'0 0.0
2016-Nov-28 20:34N 49°17' W 123°05'0 0.0
2016-Nov-28 19:33N 49°17' W 123°05'0 0.0
2016-Nov-28 18:33N 49°17' W 123°05'0 0.0
2016-Nov-28 17:34N 49°17' W 123°05'0 0.0
2016-Nov-28 16:34N 49°17' W 123°05'0 0.0
2016-Nov-28 15:33N 49°17' W 123°05'0 0.0
2016-Nov-28 14:34N 49°17' W 123°05'0 0.0
2016-Nov-28 13:34N 49°17' W 123°05'0 0.0
2016-Nov-28 12:33N 49°17' W 123°05'0 0.0
2016-Nov-28 11:33N 49°17' W 123°05'0 0.0
2016-Nov-28 10:34N 49°17' W 123°05'0 0.0
2016-Nov-28 09:34N 49°17' W 123°05'0 0.0
2016-Nov-28 08:33N 49°17' W 123°05'0 0.0
2016-Nov-28 07:33N 49°17' W 123°05'0 0.4
2016-Nov-28 06:34N 49°18' W 123°05'7 7.3
2016-Nov-28 05:33N 49°18' W 123°16'1615.7
2016-Nov-28 04:33N 49°02' W 123°18'1818.1
2016-Nov-28 03:34N 48°49' W 122°60'1514.9
2016-Nov-28 02:34N 48°38' W 123°14'1414.0
2016-Nov-28 01:33N 48°24' W 123°15'1010.3
2016-Nov-28 00:33N 48°17' W 123°26'10 9.6
2016-Nov-27 23:33N 48°13' W 123°40'1312.7
2016-Nov-27 22:33N 48°14' W 123°58'1313.1
2016-Nov-27 21:33N 48°20' W 124°16'1313.3
2016-Nov-27 20:33N 48°26' W 124°34'1312.6
2016-Nov-27 19:33N 48°29' W 124°53'1111.4
2016-Nov-27 18:33N 48°29' W 125°10'1312.9
2016-Nov-27 17:33N 48°29' W 125°29'1312.7
2016-Nov-27 16:33N 48°29' W 125°49'1312.8
2016-Nov-27 15:33N 48°29' W 126°08'1312.8
2016-Nov-27 14:32N 48°29' W 126°28'  
Track history (hours):
 
Tides and Currents Weather Stations Pressure Air Temp Water Temp Dewpoint Dewpoint Depression Visibility Wind Speed Wind Dir Waves Ship Positions

Hatsu Ethic

Last reported at 2016-Dec-02 23:28 UTC. Time now 2016-Dec-05 20:42 UTC.
Position N 48°10' W 125°51'.

Type: Ship (hazmat cat D). MMSI: 235603000.

Date/timePositionNaut miles runAvg speedWind from/ knotsBaromVisibWave heightAir tempDewpointWater temp
2016-Dec-02 23:28N 48°10' W 125°51'1517.0
2016-Dec-02 22:33N 48°20' W 125°33'1717.3
2016-Dec-02 21:33N 48°30' W 125°12'1817.7
2016-Dec-02 20:33N 48°30' W 124°45'2020.2
2016-Dec-02 19:34N 48°23' W 124°17'2020.3
2016-Dec-02 18:33N 48°17' W 123°48'1616.4
2016-Dec-02 17:33N 48°11' W 123°25'1514.1
2016-Dec-02 16:31N 48°12' W 123°03'1817.8
2016-Dec-02 15:29N 48°04' W 122°38'1718.4
2016-Dec-02 14:34N 47°49' W 122°27'1616.3
2016-Dec-02 13:33N 47°32' W 122°26'1312.7
2016-Dec-02 12:33N 47°20' W 122°26'5 0.2
2016-Dec-01 12:20N 47°15' W 122°23'2 0.2
2016-Nov-30 23:15N 47°17' W 122°25'1 1.9
2016-Nov-30 22:33N 47°17' W 122°27'1111.3
2016-Nov-30 21:33N 47°28' W 122°25'1818.4
2016-Nov-30 20:33N 47°47' W 122°27'1918.0
2016-Nov-30 19:31N 48°04' W 122°39'1616.4
2016-Nov-30 18:33N 48°12' W 122°60'1614.7
2016-Nov-30 17:29N 48°10' W 123°23'1010.8
2016-Nov-30 16:33N 48°19' W 123°27'9 8.8
2016-Nov-30 15:33N 48°24' W 123°15'1716.9
2016-Nov-30 14:32N 48°41' W 123°15'1313.3
2016-Nov-30 13:33N 48°52' W 123°05'1818.2
2016-Nov-30 12:33N 49°05' W 123°24'1515.3
2016-Nov-30 11:34N 49°19' W 123°14'7 6.6
2016-Nov-30 10:34N 49°17' W 123°05'0 0.0
2016-Nov-30 09:33N 49°17' W 123°05'0 0.0
2016-Nov-30 08:34N 49°17' W 123°05'0 0.0
2016-Nov-30 07:34N 49°17' W 123°05'0 0.0
2016-Nov-30 06:34N 49°17' W 123°05'0 0.0
2016-Nov-30 05:33N 49°17' W 123°05'0 0.0
2016-Nov-30 04:33N 49°17' W 123°05'0 0.0
2016-Nov-30 03:33N 49°17' W 123°05'0 0.0
2016-Nov-30 02:34N 49°17' W 123°05'0 0.0
2016-Nov-30 01:34N 49°17' W 123°05'0 0.0
2016-Nov-30 00:33N 49°17' W 123°05'0 0.0
2016-Nov-29 23:34N 49°17' W 123°05'0 0.0
2016-Nov-29 22:33N 49°17' W 123°05'0 0.0
2016-Nov-29 21:34N 49°17' W 123°05'0 0.0
2016-Nov-29 20:34N 49°17' W 123°05'0 0.0
2016-Nov-29 19:33N 49°17' W 123°05'0 0.0
2016-Nov-29 18:34N 49°17' W 123°05'0 0.0
2016-Nov-29 17:34N 49°17' W 123°05'0 0.0
2016-Nov-29 16:33N 49°17' W 123°05'0 0.0
2016-Nov-29 15:33N 49°17' W 123°05'0 0.0
2016-Nov-29 14:33N 49°17' W 123°05'0 0.0
2016-Nov-29 13:34N 49°17' W 123°05'0 0.0
2016-Nov-29 12:34N 49°17' W 123°05'0 0.0
2016-Nov-29 11:33N 49°17' W 123°05'0 0.0
2016-Nov-29 10:34N 49°17' W 123°05'0 0.0
2016-Nov-29 09:33N 49°17' W 123°05'0 0.0
2016-Nov-29 08:33N 49°17' W 123°05'0 0.0
2016-Nov-29 07:33N 49°17' W 123°05'0 0.0
2016-Nov-29 06:34N 49°17' W 123°05'0 0.0
2016-Nov-29 05:33N 49°17' W 123°05'0 0.0
2016-Nov-29 04:34N 49°17' W 123°05'0 0.0
2016-Nov-29 03:33N 49°17' W 123°05'0 0.0
2016-Nov-29 02:34N 49°17' W 123°05'0 0.0
2016-Nov-29 01:34N 49°17' W 123°05'0 0.0
2016-Nov-29 00:33N 49°17' W 123°05'0 0.0
2016-Nov-28 23:34N 49°17' W 123°05'0 0.0
2016-Nov-28 22:34N 49°17' W 123°05'0 0.0
2016-Nov-28 21:34N 49°17' W 123°05'0 0.0
2016-Nov-28 20:34N 49°17' W 123°05'0 0.0
2016-Nov-28 19:33N 49°17' W 123°05'0 0.0
2016-Nov-28 18:33N 49°17' W 123°05'0 0.0
2016-Nov-28 17:34N 49°17' W 123°05'0 0.0
2016-Nov-28 16:34N 49°17' W 123°05'0 0.0
2016-Nov-28 15:33N 49°17' W 123°05'0 0.0
2016-Nov-28 14:34N 49°17' W 123°05'0 0.0
2016-Nov-28 13:34N 49°17' W 123°05'0 0.0
2016-Nov-28 12:33N 49°17' W 123°05'0 0.0
2016-Nov-28 11:33N 49°17' W 123°05'0 0.0
2016-Nov-28 10:34N 49°17' W 123°05'0 0.0
2016-Nov-28 09:34N 49°17' W 123°05'0 0.0
2016-Nov-28 08:33N 49°17' W 123°05'0 0.0
2016-Nov-28 07:33N 49°17' W 123°05'0 0.4
2016-Nov-28 06:34N 49°18' W 123°05'7 7.3
2016-Nov-28 05:33N 49°18' W 123°16'1615.7
2016-Nov-28 04:33N 49°02' W 123°18'1818.1
2016-Nov-28 03:34N 48°49' W 122°60'1514.9
2016-Nov-28 02:34N 48°38' W 123°14'1414.0
2016-Nov-28 01:33N 48°24' W 123°15'1010.3
2016-Nov-28 00:33N 48°17' W 123°26'10 9.6
2016-Nov-27 23:33N 48°13' W 123°40'1312.7
2016-Nov-27 22:33N 48°14' W 123°58'1313.1
2016-Nov-27 21:33N 48°20' W 124°16'1313.3
2016-Nov-27 20:33N 48°26' W 124°34'1312.6
2016-Nov-27 19:33N 48°29' W 124°53'1111.4
2016-Nov-27 18:33N 48°29' W 125°10'1312.9
2016-Nov-27 17:33N 48°29' W 125°29'1312.7
2016-Nov-27 16:33N 48°29' W 125°49'1312.8
2016-Nov-27 15:33N 48°29' W 126°08'1312.8
2016-Nov-27 14:32N 48°29' W 126°28'  

Dump ship's entire track history